Time;durP1;ratioP1;P1;durP2;ratioP2;P2;SDS_P1;SDS_P2;PMS_P1;PMS_P2;Temp;Humidity;BMP_temperature;BMP_pressure;BME280_temperature;BME280_humidity;BME280_pressure;Samples;Min_cycle;Max_cycle;Signal;HPM_P1;HPM_P2
2022/06/16 00:00:40;;;;;;;6.13;3.13;;;;;;;;;;5038485;28;20200;-74
2022/06/16 00:03:06;;;;;;;3.07;2.87;;;;;;;;;;5009374;28;20177;-74
2022/06/16 00:05:34;;;;;;;3.40;3.10;;;;;;;;;;5030273;28;20188;-74
2022/06/16 00:08:00;;;;;;;3.77;3.37;;;;;;;;;;5009716;28;20184;-74
2022/06/16 00:10:25;;;;;;;3.67;3.17;;;;;;;;;;5009589;28;20266;-74
2022/06/16 00:12:50;;;;;;;3.93;2.80;;;;;;;;;;5027194;28;20215;-74
2022/06/16 00:15:17;;;;;;;3.47;3.17;;;;;;;;;;5024407;28;20216;-74
2022/06/16 00:17:42;;;;;;;4.20;3.03;;;;;;;;;;5010785;28;20176;-75
2022/06/16 00:20:08;;;;;;;3.17;2.90;;;;;;;;;;5011330;28;20180;-74
2022/06/16 00:22:34;;;;;;;3.03;2.77;;;;;;;;;;5024153;28;20270;-74
2022/06/16 00:24:59;;;;;;;5.90;3.23;;;;;;;;;;5003223;28;20199;-74
2022/06/16 00:27:24;;;;;;;3.47;3.00;;;;;;;;;;5018156;28;20189;-74
2022/06/16 00:29:50;;;;;;;3.90;3.60;;;;;;;;;;5024898;28;20188;-74
2022/06/16 00:32:15;;;;;;;3.77;3.47;;;;;;;;;;5011159;28;20182;-74
2022/06/16 00:34:40;;;;;;;4.53;3.17;;;;;;;;;;5044124;28;20175;-74
2022/06/16 00:37:05;;;;;;;3.60;3.30;;;;;;;;;;5010599;28;20183;-74
2022/06/16 00:39:31;;;;;;;4.97;2.97;;;;;;;;;;5021685;28;20176;-74
2022/06/16 00:41:56;;;;;;;3.37;3.07;;;;;;;;;;5010180;28;20201;-74
2022/06/16 00:56:32;;;;;;;3.33;3.07;;;;;;;;;;5023190;28;20223;-74
2022/06/16 00:58:58;;;;;;;3.00;2.80;;;;;;;;;;5027441;28;20272;-74
2022/06/16 01:01:24;;;;;;;3.37;3.07;;;;;;;;;;5000985;28;20178;-74
2022/06/16 01:06:34;;;;;;;3.30;3.00;;;;;;;;;;5029702;28;20312;-75
2022/06/16 01:09:03;;;;;;;3.77;3.20;;;;;;;;;;5010476;28;20213;-74
2022/06/16 01:14:34;;;;;;;3.43;3.13;;;;;;;;;;5025877;28;20233;-75
2022/06/16 01:17:02;;;;;;;3.00;2.80;;;;;;;;;;5002416;28;20190;-74
2022/06/16 01:20:03;;;;;;;3.60;3.30;;;;;;;;;;5007215;28;20174;-74
2022/06/16 01:22:38;;;;;;;6.03;3.23;;;;;;;;;;4950957;28;20509;-74
2022/06/16 01:25:06;;;;;;;3.57;3.27;;;;;;;;;;5017558;28;20198;-74
2022/06/16 01:27:46;;;;;;;3.97;3.60;;;;;;;;;;5003578;28;20182;-74
2022/06/16 01:30:16;;;;;;;3.20;2.93;;;;;;;;;;5020186;28;20192;-75
2022/06/16 01:32:44;;;;;;;5.37;3.37;;;;;;;;;;5019672;28;20192;-74
2022/06/16 01:35:15;;;;;;;7.67;3.47;;;;;;;;;;5006259;28;20220;-74
2022/06/16 01:37:49;;;;;;;6.03;3.60;;;;;;;;;;5025176;28;20261;-74
2022/06/16 01:40:25;;;;;;;3.30;3.00;;;;;;;;;;5027790;28;20200;-75
2022/06/16 01:42:57;;;;;;;4.33;3.27;;;;;;;;;;5012542;28;20179;-75
2022/06/16 01:45:29;;;;;;;3.27;2.97;;;;;;;;;;5006170;28;20189;-74
2022/06/16 01:47:56;;;;;;;4.17;3.23;;;;;;;;;;5028146;28;20182;-74
2022/06/16 01:50:34;;;;;;;3.83;3.30;;;;;;;;;;5024221;28;20297;-75
2022/06/16 01:53:05;;;;;;;5.00;3.27;;;;;;;;;;5017950;28;20233;-74
2022/06/16 01:55:32;;;;;;;3.80;3.30;;;;;;;;;;5008443;28;20211;-74
2022/06/16 01:57:57;;;;;;;3.30;3.10;;;;;;;;;;5005773;28;20193;-75
2022/06/16 02:00:24;;;;;;;3.80;3.50;;;;;;;;;;5019823;28;20186;-75
2022/06/16 02:02:52;;;;;;;3.77;3.03;;;;;;;;;;5007976;28;20186;-74
2022/06/16 02:05:38;;;;;;;3.70;3.03;;;;;;;;;;5014193;28;20188;-74
2022/06/16 02:08:15;;;;;;;3.43;3.17;;;;;;;;;;5003374;28;20295;-75
2022/06/16 02:10:42;;;;;;;3.80;3.10;;;;;;;;;;5037714;28;20240;-74
2022/06/16 02:13:09;;;;;;;3.30;3.00;;;;;;;;;;5013055;28;20182;-75
2022/06/16 02:15:46;;;;;;;3.10;2.80;;;;;;;;;;5012006;28;20241;-74
2022/06/16 02:18:13;;;;;;;4.53;3.27;;;;;;;;;;5009998;28;20174;-74
2022/06/16 02:20:41;;;;;;;3.10;2.80;;;;;;;;;;5013378;28;20197;-75
2022/06/16 02:23:07;;;;;;;4.03;2.83;;;;;;;;;;5023953;28;20304;-75
2022/06/16 02:25:32;;;;;;;6.13;2.93;;;;;;;;;;5043133;28;20245;-74
2022/06/16 02:27:57;;;;;;;5.83;3.43;;;;;;;;;;5014811;28;20185;-75
2022/06/16 02:30:25;;;;;;;3.63;3.33;;;;;;;;;;5026967;28;20216;-74
2022/06/16 02:32:51;;;;;;;3.40;2.93;;;;;;;;;;5014062;28;20175;-75
2022/06/16 02:35:23;;;;;;;3.30;3.00;;;;;;;;;;5014969;28;20211;-75
2022/06/16 02:38:08;;;;;;;4.00;3.30;;;;;;;;;;5024287;28;20205;-75
2022/06/16 02:40:42;;;;;;;22.50;5.33;;;;;;;;;;5013610;28;20182;-76
2022/06/16 02:43:18;;;;;;;3.77;3.37;;;;;;;;;;5011740;28;20243;-76
2022/06/16 02:45:55;;;;;;;5.67;3.30;;;;;;;;;;5015572;28;20185;-76
2022/06/16 02:48:33;;;;;;;7.63;3.20;;;;;;;;;;5011358;28;20197;-76
2022/06/16 02:51:20;;;;;;;13.00;4.33;;;;;;;;;;5022682;28;20245;-76
2022/06/16 02:56:29;;;;;;;6.60;3.50;;;;;;;;;;5030010;28;20226;-76
2022/06/16 02:58:56;;;;;;;9.70;3.10;;;;;;;;;;5009025;28;20230;-76
2022/06/16 03:01:22;;;;;;;7.17;3.30;;;;;;;;;;5014147;28;20181;-76
2022/06/16 03:04:00;;;;;;;5.13;3.27;;;;;;;;;;5030269;28;20200;-76
2022/06/16 03:06:25;;;;;;;3.70;3.40;;;;;;;;;;5013436;28;20200;-76
2022/06/16 03:08:51;;;;;;;5.73;2.93;;;;;;;;;;5021254;28;20195;-76
2022/06/16 03:11:16;;;;;;;8.93;3.37;;;;;;;;;;5013202;28;20181;-76
2022/06/16 03:13:41;;;;;;;8.57;3.63;;;;;;;;;;5018789;28;20237;-76
2022/06/16 03:16:09;;;;;;;5.37;3.57;;;;;;;;;;5008218;28;20539;-76
2022/06/16 03:18:34;;;;;;;4.23;3.10;;;;;;;;;;5019986;28;20183;-76
2022/06/16 03:21:00;;;;;;;3.37;2.80;;;;;;;;;;5010752;28;20182;-76
2022/06/16 03:23:25;;;;;;;3.70;3.00;;;;;;;;;;5023833;28;20280;-76
2022/06/16 03:25:51;;;;;;;4.53;3.13;;;;;;;;;;5016003;28;20214;-76
2022/06/16 03:28:16;;;;;;;2.70;2.50;;;;;;;;;;5012030;28;20202;-76
2022/06/16 03:30:42;;;;;;;4.77;2.90;;;;;;;;;;5022737;28;20185;-76
2022/06/16 03:33:08;;;;;;;2.70;2.50;;;;;;;;;;5024227;28;20188;-76
2022/06/16 03:35:34;;;;;;;7.00;3.23;;;;;;;;;;5032208;28;20220;-76
2022/06/16 03:38:00;;;;;;;2.83;2.63;;;;;;;;;;5027934;28;20440;-76
2022/06/16 03:40:26;;;;;;;2.90;2.20;;;;;;;;;;5010011;28;20216;-75
2022/06/16 03:42:51;;;;;;;3.07;2.80;;;;;;;;;;5013504;28;20178;-76
2022/06/16 03:45:17;;;;;;;2.80;2.57;;;;;;;;;;5013485;28;20182;-75
2022/06/16 03:47:42;;;;;;;3.10;2.80;;;;;;;;;;5015942;28;20185;-75
2022/06/16 03:50:07;;;;;;;4.50;2.73;;;;;;;;;;5022787;28;20239;-76
2022/06/16 03:52:33;;;;;;;5.13;2.97;;;;;;;;;;5012413;28;20178;-76
2022/06/16 03:54:58;;;;;;;3.90;2.90;;;;;;;;;;5030654;28;20232;-76
2022/06/16 03:57:23;;;;;;;5.30;2.90;;;;;;;;;;5035693;28;20311;-76
2022/06/16 03:59:48;;;;;;;3.40;3.10;;;;;;;;;;5017377;28;20426;-76
2022/06/16 04:02:13;;;;;;;2.77;2.57;;;;;;;;;;5011948;28;20215;-76
2022/06/16 04:04:39;;;;;;;3.50;3.20;;;;;;;;;;5030968;28;20204;-75
2022/06/16 04:07:05;;;;;;;3.27;2.97;;;;;;;;;;5012147;28;20184;-76
2022/06/16 04:09:30;;;;;;;3.03;2.83;;;;;;;;;;5028981;28;20177;-76
2022/06/16 04:11:56;;;;;;;4.43;2.80;;;;;;;;;;5044293;28;20286;-76
2022/06/16 04:14:21;;;;;;;3.47;3.00;;;;;;;;;;5033074;28;20173;-76
2022/06/16 04:16:48;;;;;;;4.07;3.10;;;;;;;;;;5020257;28;20202;-76
2022/06/16 04:19:14;;;;;;;3.10;2.87;;;;;;;;;;5012009;28;20277;-76
2022/06/16 04:21:41;;;;;;;3.27;2.97;;;;;;;;;;5010238;28;20776;-76
2022/06/16 04:24:06;;;;;;;3.10;2.90;;;;;;;;;;5006446;28;20175;-76
2022/06/16 04:26:37;;;;;;;3.70;3.00;;;;;;;;;;5010243;28;20192;-76
2022/06/16 04:29:02;;;;;;;3.23;2.87;;;;;;;;;;5004727;28;20208;-76
2022/06/16 04:31:28;;;;;;;3.40;3.03;;;;;;;;;;5012782;28;20183;-76
2022/06/16 04:33:53;;;;;;;3.73;2.90;;;;;;;;;;5006330;28;20178;-76
2022/06/16 04:36:18;;;;;;;3.93;3.17;;;;;;;;;;5030257;28;20211;-76
2022/06/16 04:38:44;;;;;;;4.07;3.53;;;;;;;;;;5015499;28;20198;-76
2022/06/16 04:41:09;;;;;;;3.30;3.00;;;;;;;;;;5011622;28;20174;-76
2022/06/16 04:43:34;;;;;;;3.90;3.27;;;;;;;;;;5031889;28;20189;-76
2022/06/16 04:46:00;;;;;;;4.63;3.17;;;;;;;;;;5026005;28;20175;-76
2022/06/16 04:48:26;;;;;;;5.33;4.27;;;;;;;;;;5029675;28;20187;-76
2022/06/16 04:50:51;;;;;;;3.57;3.27;;;;;;;;;;5027159;28;20237;-76
2022/06/16 04:53:16;;;;;;;3.10;2.80;;;;;;;;;;5025271;28;20182;-76
2022/06/16 04:55:41;;;;;;;4.03;3.00;;;;;;;;;;5016999;28;20205;-76
2022/06/16 04:58:06;;;;;;;4.23;2.90;;;;;;;;;;5013054;28;20178;-76
2022/06/16 05:00:32;;;;;;;4.17;3.00;;;;;;;;;;5030311;28;20234;-76
2022/06/16 05:02:57;;;;;;;3.30;3.00;;;;;;;;;;5014679;28;20184;-76
2022/06/16 05:05:23;;;;;;;3.30;3.00;;;;;;;;;;5020665;28;20193;-75
2022/06/16 05:07:48;;;;;;;4.33;3.20;;;;;;;;;;5029440;28;20179;-76
2022/06/16 05:10:13;;;;;;;3.27;2.97;;;;;;;;;;5041931;28;20185;-76
2022/06/16 05:12:39;;;;;;;3.37;3.07;;;;;;;;;;5040459;28;20178;-76
2022/06/16 05:15:04;;;;;;;4.07;3.67;;;;;;;;;;5012014;28;20230;-76
2022/06/16 05:17:30;;;;;;;3.43;3.13;;;;;;;;;;5004735;28;20187;-76
2022/06/16 05:19:55;;;;;;;3.77;2.97;;;;;;;;;;5021569;28;20172;-76
2022/06/16 05:22:20;;;;;;;3.30;3.07;;;;;;;;;;5022762;28;20246;-76
2022/06/16 05:24:45;;;;;;;3.07;2.77;;;;;;;;;;5010050;28;20186;-76
2022/06/16 05:27:11;;;;;;;3.50;3.10;;;;;;;;;;5006811;28;20267;-76
2022/06/16 05:29:36;;;;;;;4.03;3.23;;;;;;;;;;5020672;28;20186;-76
2022/06/16 05:32:01;;;;;;;3.73;3.30;;;;;;;;;;5015152;28;20187;-76
2022/06/16 05:34:26;;;;;;;6.30;3.57;;;;;;;;;;5008168;28;20173;-76
2022/06/16 05:36:52;;;;;;;3.30;2.83;;;;;;;;;;5013874;28;20238;-76
2022/06/16 05:39:17;;;;;;;5.63;3.33;;;;;;;;;;5020733;28;20175;-76
2022/06/16 05:41:42;;;;;;;3.27;2.97;;;;;;;;;;5036703;28;20178;-76
2022/06/16 05:44:08;;;;;;;4.40;3.30;;;;;;;;;;5026387;28;20180;-76
2022/06/16 05:46:34;;;;;;;4.47;3.23;;;;;;;;;;5014136;28;20177;-76
2022/06/16 05:48:59;;;;;;;4.20;3.00;;;;;;;;;;5007155;28;20197;-76
2022/06/16 05:51:25;;;;;;;3.73;3.03;;;;;;;;;;5014147;28;20190;-76
2022/06/16 05:53:51;;;;;;;3.50;3.20;;;;;;;;;;5017262;28;20201;-76
2022/06/16 05:56:16;;;;;;;5.47;3.60;;;;;;;;;;5030442;28;20205;-76
2022/06/16 05:58:41;;;;;;;3.80;3.27;;;;;;;;;;5006480;28;20241;-76
2022/06/16 06:01:07;;;;;;;4.33;3.10;;;;;;;;;;5009227;28;20455;-76
2022/06/16 06:03:32;;;;;;;4.90;3.43;;;;;;;;;;5021914;28;20177;-76
2022/06/16 06:06:00;;;;;;;4.10;3.80;;;;;;;;;;5023956;28;20191;-76
2022/06/16 06:16:41;;;;;;;5.90;3.53;;;;;;;;;;5027040;28;20221;-76
2022/06/16 06:19:23;;;;;;;5.93;3.50;;;;;;;;;;5029372;28;20179;-76
2022/06/16 06:21:58;;;;;;;3.47;3.17;;;;;;;;;;5007551;28;20171;-76
2022/06/16 06:24:24;;;;;;;3.80;3.40;;;;;;;;;;5007699;28;20178;-76
2022/06/16 06:26:49;;;;;;;3.83;3.43;;;;;;;;;;5007357;28;20277;-75
2022/06/16 06:29:15;;;;;;;4.77;3.60;;;;;;;;;;5003352;28;20281;-76
2022/06/16 06:31:40;;;;;;;5.00;3.40;;;;;;;;;;5008053;28;20302;-76
2022/06/16 06:34:05;;;;;;;5.13;3.60;;;;;;;;;;5027837;28;20180;-76
2022/06/16 06:38:58;;;;;;;4.53;3.80;;;;;;;;;;4971374;28;20264;-76
2022/06/16 06:41:23;;;;;;;4.43;3.47;;;;;;;;;;4951889;28;20182;-76
2022/06/16 06:43:49;;;;;;;3.87;3.57;;;;;;;;;;4992497;28;20398;-74
2022/06/16 06:46:14;;;;;;;4.17;3.77;;;;;;;;;;4959400;28;20192;-76
2022/06/16 06:48:39;;;;;;;6.77;3.97;;;;;;;;;;4987564;28;20213;-76
2022/06/16 06:51:05;;;;;;;4.27;3.60;;;;;;;;;;4976636;28;20197;-76
2022/06/16 06:53:30;;;;;;;5.70;3.47;;;;;;;;;;4976221;28;20188;-76
2022/06/16 06:55:55;;;;;;;3.50;3.20;;;;;;;;;;4991600;28;20221;-76
2022/06/16 06:58:22;;;;;;;3.97;3.63;;;;;;;;;;4968444;28;20184;-76
2022/06/16 07:00:49;;;;;;;4.37;3.30;;;;;;;;;;4982570;28;20223;-76
2022/06/16 07:03:14;;;;;;;3.70;3.40;;;;;;;;;;4975323;28;20284;-76
2022/06/16 07:05:40;;;;;;;5.83;3.70;;;;;;;;;;4994327;28;20272;-76
2022/06/16 07:08:05;;;;;;;3.33;3.03;;;;;;;;;;4996938;28;20227;-76
2022/06/16 07:10:31;;;;;;;3.93;3.63;;;;;;;;;;4988345;28;20187;-76
2022/06/16 07:12:56;;;;;;;4.10;3.80;;;;;;;;;;4975260;28;20184;-76
2022/06/16 07:15:21;;;;;;;3.50;3.20;;;;;;;;;;5006602;28;20236;-74
2022/06/16 07:17:46;;;;;;;3.90;3.60;;;;;;;;;;4994837;28;20234;-73
2022/06/16 07:20:15;;;;;;;4.87;4.30;;;;;;;;;;4989389;28;20177;-76
2022/06/16 07:22:41;;;;;;;4.67;4.23;;;;;;;;;;4989470;28;20179;-76
2022/06/16 07:25:06;;;;;;;4.50;4.10;;;;;;;;;;4972146;28;20181;-76
2022/06/16 07:27:31;;;;;;;5.80;4.20;;;;;;;;;;4989011;28;20189;-76
2022/06/16 07:29:56;;;;;;;5.47;3.90;;;;;;;;;;4977642;28;20465;-76
2022/06/16 07:32:22;;;;;;;3.40;3.10;;;;;;;;;;4967172;28;20196;-76
2022/06/16 07:34:47;;;;;;;5.80;4.73;;;;;;;;;;4977528;28;20194;-76
2022/06/16 07:37:13;;;;;;;5.17;4.77;;;;;;;;;;4976262;28;20234;-76
2022/06/16 07:39:38;;;;;;;7.00;4.77;;;;;;;;;;4993384;28;20168;-76
2022/06/16 07:42:04;;;;;;;4.63;4.13;;;;;;;;;;4975565;28;20185;-76
2022/06/16 07:44:29;;;;;;;4.60;4.20;;;;;;;;;;4982057;28;20184;-76
2022/06/16 07:46:54;;;;;;;5.10;4.60;;;;;;;;;;4974379;28;20189;-76
2022/06/16 07:49:22;;;;;;;5.60;4.72;;;;;;;;;;4966601;28;20209;-76
2022/06/16 07:51:48;;;;;;;6.07;4.80;;;;;;;;;;4976576;28;20211;-76
2022/06/16 07:54:14;;;;;;;6.13;4.87;;;;;;;;;;4969670;28;20222;-76
2022/06/16 07:56:40;;;;;;;5.47;4.97;;;;;;;;;;4979253;28;20271;-76
2022/06/16 07:59:05;;;;;;;5.38;4.90;;;;;;;;;;4969845;28;20180;-77
2022/06/16 08:01:30;;;;;;;7.97;4.63;;;;;;;;;;4990176;28;20179;-76
2022/06/16 08:03:56;;;;;;;6.50;4.60;;;;;;;;;;4970798;28;20223;-76
2022/06/16 08:06:26;;;;;;;6.67;5.83;;;;;;;;;;4977977;28;20187;-76
2022/06/16 08:08:52;;;;;;;5.57;4.57;;;;;;;;;;4967117;28;20184;-76
2022/06/16 08:14:01;;;;;;;4.97;4.47;;;;;;;;;;4990529;28;20198;-76
2022/06/16 08:16:27;;;;;;;4.60;4.10;;;;;;;;;;4978494;28;20263;-76
2022/06/16 08:18:52;;;;;;;5.50;5.03;;;;;;;;;;4976981;28;20175;-76
2022/06/16 08:21:17;;;;;;;5.53;5.03;;;;;;;;;;4974564;28;20180;-76
2022/06/16 08:23:42;;;;;;;5.10;4.60;;;;;;;;;;4992774;28;20183;-76
2022/06/16 08:26:08;;;;;;;7.83;4.90;;;;;;;;;;4972477;28;20201;-76
2022/06/16 08:28:34;;;;;;;4.83;4.30;;;;;;;;;;4977845;28;20191;-76
2022/06/16 08:31:00;;;;;;;8.20;4.80;;;;;;;;;;4976895;28;20180;-77
2022/06/16 08:33:25;;;;;;;5.20;4.35;;;;;;;;;;4975120;28;20261;-76
2022/06/16 08:35:50;;;;;;;5.35;4.70;;;;;;;;;;4973104;28;20200;-76
2022/06/16 08:38:16;;;;;;;6.05;4.93;;;;;;;;;;4986780;28;20286;-76
2022/06/16 08:40:43;;;;;;;5.40;4.80;;;;;;;;;;4994326;28;20317;-76
2022/06/16 08:43:16;;;;;;;4.82;4.43;;;;;;;;;;4993145;28;20175;-76
2022/06/16 08:45:46;;;;;;;5.28;4.45;;;;;;;;;;4991310;28;20179;-76
2022/06/16 08:48:20;;;;;;;5.93;5.33;;;;;;;;;;5011233;28;20211;-76
2022/06/16 08:51:06;;;;;;;5.70;5.03;;;;;;;;;;5008265;28;20205;-76
2022/06/16 08:53:34;;;;;;;4.50;3.90;;;;;;;;;;4995993;28;20178;-76
2022/06/16 08:56:08;;;;;;;5.47;4.72;;;;;;;;;;5005986;28;20203;-76
2022/06/16 08:58:42;;;;;;;4.45;4.10;;;;;;;;;;4995230;28;20271;-76
2022/06/16 09:01:19;;;;;;;7.18;4.45;;;;;;;;;;4996519;28;20214;-76
2022/06/16 09:03:45;;;;;;;5.07;4.43;;;;;;;;;;4991057;28;20182;-76
2022/06/16 09:06:28;;;;;;;4.97;4.40;;;;;;;;;;5007907;28;20182;-76
2022/06/16 09:08:59;;;;;;;4.60;4.25;;;;;;;;;;5007059;28;20193;-77
2022/06/16 09:11:43;;;;;;;4.57;4.18;;;;;;;;;;5013939;28;20187;-76
2022/06/16 09:14:14;;;;;;;5.13;4.53;;;;;;;;;;4997194;28;20178;-77
2022/06/16 09:16:54;;;;;;;6.03;4.80;;;;;;;;;;4993487;28;20209;-77
2022/06/16 09:19:27;;;;;;;5.22;4.63;;;;;;;;;;4996680;28;20222;-76
2022/06/16 09:22:12;;;;;;;4.32;3.92;;;;;;;;;;4997646;28;20212;-76
2022/06/16 09:25:00;;;;;;;5.05;4.65;;;;;;;;;;4985382;28;20178;-77
2022/06/16 09:27:28;;;;;;;5.70;4.43;;;;;;;;;;4989562;28;20180;-77
2022/06/16 09:30:11;;;;;;;5.10;4.45;;;;;;;;;;5009882;28;20176;-77
2022/06/16 09:32:52;;;;;;;4.97;4.57;;;;;;;;;;5010944;28;20186;-76
2022/06/16 09:35:27;;;;;;;4.55;4.07;;;;;;;;;;5023678;28;20246;-77
2022/06/16 09:37:55;;;;;;;5.47;4.18;;;;;;;;;;4982930;28;20234;-76
2022/06/16 09:40:26;;;;;;;5.45;4.53;;;;;;;;;;4976993;28;20231;-77
2022/06/16 09:42:58;;;;;;;5.13;4.47;;;;;;;;;;4976589;28;20180;-77
2022/06/16 09:45:35;;;;;;;5.65;4.28;;;;;;;;;;4988392;28;20176;-77
2022/06/16 09:48:13;;;;;;;4.60;4.20;;;;;;;;;;4969263;28;20183;-77
2022/06/16 09:50:41;;;;;;;8.43;5.93;;;;;;;;;;4974185;28;20207;-76
2022/06/16 09:53:15;;;;;;;4.90;4.40;;;;;;;;;;4993840;28;20180;-76
2022/06/16 09:55:44;;;;;;;5.13;4.47;;;;;;;;;;4970148;28;20224;-76
2022/06/16 09:58:14;;;;;;;4.20;3.90;;;;;;;;;;4975869;28;20182;-76
2022/06/16 10:00:39;;;;;;;6.47;4.20;;;;;;;;;;4988035;28;20176;-76
2022/06/16 10:03:24;;;;;;;6.05;4.55;;;;;;;;;;4976047;28;20191;-77
2022/06/16 10:05:57;;;;;;;6.07;4.32;;;;;;;;;;4968043;28;20274;-76
2022/06/16 10:08:27;;;;;;;8.18;4.72;;;;;;;;;;4989578;28;20172;-76
2022/06/16 10:11:19;;;;;;;7.25;4.50;;;;;;;;;;4982458;28;20263;-76
2022/06/16 10:13:55;;;;;;;5.15;4.70;;;;;;;;;;4966108;28;20224;-76
2022/06/16 10:16:29;;;;;;;4.65;4.25;;;;;;;;;;4973465;28;20211;-76
2022/06/16 10:18:54;;;;;;;5.13;4.63;;;;;;;;;;4974244;28;20227;-77
2022/06/16 10:21:21;;;;;;;4.93;4.43;;;;;;;;;;4972439;28;20184;-77
2022/06/16 10:23:55;;;;;;;5.20;4.70;;;;;;;;;;4978497;28;20187;-76
2022/06/16 10:26:21;;;;;;;5.18;4.70;;;;;;;;;;4979004;28;20184;-77
2022/06/16 10:28:52;;;;;;;4.88;4.30;;;;;;;;;;4986332;28;20183;-77
2022/06/16 10:31:35;;;;;;;8.60;4.78;;;;;;;;;;4975692;28;20184;-77
2022/06/16 10:34:01;;;;;;;5.05;4.65;;;;;;;;;;4976409;28;20180;-77
2022/06/16 10:36:27;;;;;;;4.63;4.25;;;;;;;;;;4982141;28;20230;-76
2022/06/16 10:39:23;;;;;;;8.25;4.97;;;;;;;;;;4975032;28;20243;-77
2022/06/16 10:41:51;;;;;;;5.07;4.50;;;;;;;;;;4978999;28;20275;-77
2022/06/16 10:44:17;;;;;;;4.47;4.13;;;;;;;;;;4981174;28;20207;-76
2022/06/16 10:46:55;;;;;;;4.47;4.07;;;;;;;;;;4980321;28;20267;-77
2022/06/16 10:49:28;;;;;;;5.38;4.43;;;;;;;;;;4975130;28;20211;-77
2022/06/16 10:52:02;;;;;;;5.53;4.90;;;;;;;;;;4989969;28;20227;-76
2022/06/16 10:54:36;;;;;;;6.45;5.50;;;;;;;;;;4978782;28;20177;-76
2022/06/16 10:57:06;;;;;;;5.90;5.40;;;;;;;;;;4973337;28;20218;-77
2022/06/16 10:59:34;;;;;;;5.10;4.60;;;;;;;;;;4975681;28;20198;-77
2022/06/16 11:02:01;;;;;;;5.47;4.97;;;;;;;;;;4988974;28;20184;-77
2022/06/16 11:04:42;;;;;;;5.50;4.63;;;;;;;;;;4963874;28;20179;-76
2022/06/16 11:07:10;;;;;;;5.28;4.88;;;;;;;;;;4996926;28;20179;-77
2022/06/16 11:09:35;;;;;;;5.65;5.03;;;;;;;;;;4971894;28;20176;-77
2022/06/16 11:12:03;;;;;;;5.97;5.47;;;;;;;;;;4987246;28;20179;-77
2022/06/16 11:14:28;;;;;;;5.25;4.85;;;;;;;;;;4973349;28;20180;-76
2022/06/16 11:16:54;;;;;;;5.30;4.80;;;;;;;;;;4983491;28;20302;-77
2022/06/16 11:19:26;;;;;;;6.07;5.03;;;;;;;;;;4989520;28;20441;-77
2022/06/16 11:21:51;;;;;;;5.70;5.13;;;;;;;;;;4975939;28;20189;-77
2022/06/16 11:24:37;;;;;;;11.70;5.22;;;;;;;;;;4985383;28;20203;-77
2022/06/16 11:27:09;;;;;;;5.32;4.82;;;;;;;;;;4976565;28;20215;-77
2022/06/16 11:29:35;;;;;;;5.90;5.07;;;;;;;;;;4970052;28;20188;-77
2022/06/16 11:32:03;;;;;;;7.22;5.10;;;;;;;;;;4990318;28;20186;-77
2022/06/16 11:34:28;;;;;;;5.30;4.90;;;;;;;;;;4978186;28;20187;-77
2022/06/16 11:37:00;;;;;;;4.55;4.15;;;;;;;;;;4997963;28;20203;-77
2022/06/16 11:39:45;;;;;;;5.65;4.60;;;;;;;;;;5111567;23;20211;-77
2022/06/16 11:42:21;;;;;;;5.18;4.68;;;;;;;;;;5027884;28;20277;-77
2022/06/16 11:44:50;;;;;;;5.43;4.10;;;;;;;;;;5000980;28;20263;-77
2022/06/16 11:47:20;;;;;;;4.70;4.40;;;;;;;;;;5009926;28;20242;-77
2022/06/16 11:49:52;;;;;;;5.47;4.97;;;;;;;;;;5012348;28;20199;-78
2022/06/16 11:52:34;;;;;;;5.03;4.53;;;;;;;;;;5026796;28;20202;-78
2022/06/16 11:55:09;;;;;;;5.80;4.78;;;;;;;;;;5011850;28;20398;-78
2022/06/16 11:57:40;;;;;;;6.55;4.90;;;;;;;;;;5008969;28;20270;-77
2022/06/16 12:00:13;;;;;;;5.45;4.32;;;;;;;;;;5028966;28;20174;-77
2022/06/16 12:02:44;;;;;;;6.88;4.22;;;;;;;;;;5023337;28;20171;-78
2022/06/16 12:05:36;;;;;;;4.32;4.03;;;;;;;;;;5035668;28;20253;-79
2022/06/16 12:08:15;;;;;;;7.78;4.68;;;;;;;;;;4998563;28;20183;-78
2022/06/16 12:10:44;;;;;;;5.10;3.53;;;;;;;;;;5004295;28;20219;-78
2022/06/16 12:13:20;;;;;;;4.35;3.95;;;;;;;;;;5025947;28;20179;-77
2022/06/16 12:15:48;;;;;;;8.18;4.28;;;;;;;;;;5027219;28;20209;-78
2022/06/16 12:18:13;;;;;;;4.15;3.75;;;;;;;;;;5027512;28;20171;-78
2022/06/16 12:20:44;;;;;;;5.25;4.32;;;;;;;;;;5021555;28;20179;-77
2022/06/16 12:23:14;;;;;;;8.27;5.50;;;;;;;;;;5012621;28;20186;-78
2022/06/16 12:25:39;;;;;;;4.65;4.25;;;;;;;;;;5016041;28;20247;-77
2022/06/16 12:28:12;;;;;;;3.83;3.53;;;;;;;;;;5003389;28;20266;-78
2022/06/16 12:30:58;;;;;;;4.35;3.95;;;;;;;;;;5022590;28;20245;-78
2022/06/16 12:33:26;;;;;;;5.18;4.00;;;;;;;;;;5008364;28;20250;-78
2022/06/16 12:35:57;;;;;;;4.60;4.20;;;;;;;;;;5013415;28;20231;-78
2022/06/16 12:38:32;;;;;;;4.35;3.92;;;;;;;;;;5023434;28;20188;-77
2022/06/16 12:41:08;;;;;;;4.07;3.78;;;;;;;;;;5031835;28;20225;-77
2022/06/16 12:43:36;;;;;;;6.10;4.07;;;;;;;;;;5006734;28;20397;-77
2022/06/16 12:46:04;;;;;;;5.43;3.65;;;;;;;;;;5012612;28;20210;-77
2022/06/16 12:48:39;;;;;;;3.72;3.42;;;;;;;;;;5027839;28;20182;-78
2022/06/16 12:51:06;;;;;;;9.77;4.88;;;;;;;;;;5013258;28;20199;-78
2022/06/16 12:53:35;;;;;;;6.25;4.40;;;;;;;;;;5000175;28;20242;-78
2022/06/16 12:56:00;;;;;;;4.18;3.88;;;;;;;;;;5006880;28;20208;-78
2022/06/16 12:58:28;;;;;;;4.80;4.03;;;;;;;;;;5003665;28;20171;-78
2022/06/16 13:00:56;;;;;;;4.75;3.92;;;;;;;;;;5024408;28;20504;-78
2022/06/16 13:03:25;;;;;;;4.30;3.80;;;;;;;;;;5002072;28;20179;-78
2022/06/16 13:05:51;;;;;;;4.82;3.70;;;;;;;;;;5015050;28;20239;-78
2022/06/16 13:08:17;;;;;;;4.07;3.78;;;;;;;;;;5025762;28;20265;-78
2022/06/16 13:10:45;;;;;;;5.85;4.20;;;;;;;;;;5006296;28;20270;-78
2022/06/16 13:13:11;;;;;;;10.02;3.92;;;;;;;;;;5022183;28;20187;-79
2022/06/16 13:15:42;;;;;;;5.30;4.00;;;;;;;;;;5009728;28;20257;-79
2022/06/16 13:18:13;;;;;;;4.18;3.78;;;;;;;;;;5015879;28;20188;-78
2022/06/16 13:20:39;;;;;;;4.30;3.90;;;;;;;;;;5023791;28;20221;-79
2022/06/16 13:23:15;;;;;;;4.45;4.00;;;;;;;;;;5022062;28;20183;-77
2022/06/16 13:25:43;;;;;;;4.80;4.22;;;;;;;;;;5022576;28;20187;-78
2022/06/16 13:28:17;;;;;;;4.15;3.75;;;;;;;;;;5015129;28;20186;-77
2022/06/16 13:30:57;;;;;;;5.40;4.30;;;;;;;;;;5031945;28;20186;-78
2022/06/16 13:33:31;;;;;;;4.28;3.88;;;;;;;;;;5004114;28;20183;-78
2022/06/16 13:36:10;;;;;;;4.25;3.70;;;;;;;;;;5021937;28;20202;-78
2022/06/16 13:38:43;;;;;;;4.55;3.67;;;;;;;;;;5006665;28;20170;-79
2022/06/16 13:41:27;;;;;;;3.90;3.50;;;;;;;;;;5023830;28;20232;-78
2022/06/16 13:44:13;;;;;;;8.40;4.68;;;;;;;;;;4998060;28;20278;-79
2022/06/16 13:46:49;;;;;;;7.80;4.40;;;;;;;;;;5004478;28;20183;-79
2022/06/16 13:49:43;;;;;;;4.70;4.40;;;;;;;;;;5014600;28;20203;-78
2022/06/16 13:52:15;;;;;;;5.25;4.75;;;;;;;;;;4988650;28;20207;-79
2022/06/16 13:54:41;;;;;;;5.50;4.28;;;;;;;;;;5007289;28;20486;-78
2022/06/16 13:57:21;;;;;;;4.60;4.22;;;;;;;;;;5005849;28;20202;-79
2022/06/16 13:59:53;;;;;;;5.05;4.47;;;;;;;;;;5008320;28;20259;-79
2022/06/16 14:02:18;;;;;;;4.53;4.10;;;;;;;;;;4994044;28;20187;-78
2022/06/16 14:04:48;;;;;;;4.70;4.30;;;;;;;;;;4990870;28;20172;-79
2022/06/16 14:07:14;;;;;;;5.15;4.65;;;;;;;;;;5024099;28;20242;-78
2022/06/16 14:10:01;;;;;;;4.35;3.95;;;;;;;;;;5002106;28;20180;-77
2022/06/16 14:12:59;;;;;;;5.80;4.90;;;;;;;;;;5022356;28;20334;-78
2022/06/16 14:15:42;;;;;;;4.90;4.55;;;;;;;;;;4956944;28;20210;-78
2022/06/16 14:18:13;;;;;;;5.78;5.28;;;;;;;;;;5027022;28;20188;-78
2022/06/16 14:20:39;;;;;;;5.10;4.70;;;;;;;;;;4994473;28;20274;-78
2022/06/16 14:23:09;;;;;;;5.13;4.72;;;;;;;;;;5016360;28;20254;-78
2022/06/16 14:25:38;;;;;;;4.72;4.32;;;;;;;;;;5009204;28;20176;-78
2022/06/16 14:28:34;;;;;;;5.57;5.07;;;;;;;;;;4985761;28;20184;-78
2022/06/16 14:31:09;;;;;;;5.22;4.68;;;;;;;;;;4995782;28;20262;-79
2022/06/16 14:33:40;;;;;;;6.15;5.18;;;;;;;;;;4999507;28;20231;-78
2022/06/16 14:36:11;;;;;;;5.88;5.30;;;;;;;;;;5006131;28;20295;-78
2022/06/16 14:38:45;;;;;;;5.50;5.00;;;;;;;;;;4995936;28;20175;-78
2022/06/16 14:41:29;;;;;;;5.15;4.78;;;;;;;;;;5020216;28;20232;-78
2022/06/16 14:43:54;;;;;;;4.82;4.40;;;;;;;;;;5015219;28;20175;-79
2022/06/16 14:46:26;;;;;;;4.65;4.25;;;;;;;;;;5031765;28;20248;-79
2022/06/16 14:48:54;;;;;;;7.97;4.63;;;;;;;;;;5013143;28;20281;-78
2022/06/16 14:51:22;;;;;;;6.40;4.50;;;;;;;;;;5013797;28;20241;-77
2022/06/16 14:53:52;;;;;;;6.18;4.63;;;;;;;;;;5010457;28;20184;-78
2022/06/16 14:56:19;;;;;;;4.53;4.20;;;;;;;;;;5024675;28;20211;-78
2022/06/16 14:58:58;;;;;;;5.25;4.78;;;;;;;;;;5019180;28;20254;-79
2022/06/16 15:01:26;;;;;;;5.68;4.90;;;;;;;;;;5001067;28;20211;-78
2022/06/16 15:03:53;;;;;;;5.18;4.78;;;;;;;;;;5017227;28;20179;-78
2022/06/16 15:06:18;;;;;;;5.60;4.88;;;;;;;;;;5020477;28;20194;-78
2022/06/16 15:08:46;;;;;;;5.57;4.30;;;;;;;;;;5022515;28;20188;-79
2022/06/16 15:11:12;;;;;;;5.30;4.80;;;;;;;;;;5007294;28;20184;-79
2022/06/16 15:13:38;;;;;;;5.97;4.82;;;;;;;;;;5002138;28;20192;-78
2022/06/16 15:16:06;;;;;;;4.78;4.38;;;;;;;;;;5034999;28;20226;-79
2022/06/16 15:18:33;;;;;;;5.75;4.72;;;;;;;;;;5008106;28;20183;-79
2022/06/16 15:21:01;;;;;;;5.45;4.57;;;;;;;;;;5005527;28;20262;-78
2022/06/16 15:23:30;;;;;;;5.38;4.75;;;;;;;;;;5011307;28;20179;-79
2022/06/16 15:25:57;;;;;;;5.43;4.88;;;;;;;;;;5004888;28;20195;-79
2022/06/16 15:28:24;;;;;;;4.75;4.30;;;;;;;;;;5020650;28;20191;-79
2022/06/16 15:30:50;;;;;;;7.03;4.40;;;;;;;;;;5011974;28;20198;-79